Grants, NM

12:56 AM MDT on August 01, 2014 (GMT -0600)
Gallup Municipal (KGUP) Elev 6470 ft | 35.51 °N, 108.79 °W | Change Station
Active Advisory: Areal Flood Advisory Active Notice: Public Information Statement

Current weather conditions updated 1 hour ago

Scattered Clouds
Scattered Clouds
61 °F
Feels Like 61 °F
N
5
Wind Variable Wind from South

Today is forecast to be nearly the same temperature as yesterday. Scattered thunderstorms.

Today
High -- | Low -- °F
--% Chance of Precip.
Yesterday
High -- | Low -- °F
Precip. -- in
6:20 AM 8:14 PM
Waxing Crescent, 24% visible
Pressure 29.81 in
Visibility 10.0 miles
Clouds Scattered Clouds 10000 ft
Dew Point 55 °F
Humidity 81%
Rainfall 0.05 in
Snow Depth Not available.
UV 0 out of 12
Pollen 2.50 out of 12
Air Quality Not available.
Flu Activity Not available.
METAR KGUP 010553Z AUTO 19004KT 10SM SCT100 16/13 A3032 RMK AO2 SLP094 60000 T01610128 10217 20161 51012

More Conditions Fewer Conditions

Pressure 29.81 in
Visibility 10.0 miles
Clouds Scattered Clouds 10000 ft
Dew Point 55 °F
Humidity 81%
Rainfall 0.05 in
Snow Depth Not available.
UV 0 out of 12
Pollen 2.50 out of 12
Air Quality Not available.
Flu Activity Not available.
METAR KGUP 010553Z AUTO 19004KT 10SM SCT100 16/13 A3032 RMK AO2 SLP094 60000 T01610128 10217 20161 51012

More Conditions Fewer Conditions

Nowcast | as of 11:49 PM MDT on July 31, 2014

Showers...some with thunder...will continue overnight. Showers in Catron County will move across State Road 12...Datil...Old Horse Springs...Beaverhead...and Gila Cliff Dwellings National Monument. Expect occasional lightning and rainfall up to a tenth of an inch as these showers move through. Elsewhere...expect brief light rainfall in scattered showers overnight.

×

10-Day Weather Forecast

Almanac

Astronomy

Aug. 01, 2014 Rise Set
Actual Time 6:20 AM MDT 8:14 PM MDT
Civil Twilight 5:52 AM MDT 8:42 PM MDT
Nautical Twilight 5:18 AM MDT 9:16 PM MDT
Astronomical Twilight 4:41 AM MDT 9:52 PM MDT
Moon 11:33 AM MDT 11:15 PM MDT
Length of Visible Light 14h 50m
Length of Day
13h 54m
Tomorrow will be 1m 40s shorter.
Waxing Crescent, 24% of the Moon is Illuminated
Today
Waxing Crescent
Aug 3
First Quarter
Aug 10
Full
Aug 17
Last Quarter
Aug 25
New

Today's Extremes

State Highs State Lows

Community

WunderPhotos

Upload Photos

1,739,522 photos uploaded!

Nearby

Snow Depth

Station Depth Elevation
Bateman 0 in 9300 ft
Elk Cabin 111 in 8210 ft
Chamita 0 in 8400 ft
Hopewell 0 in 10000 ft
Wesner Springs 2 in 11120 ft

Earthquake Activity

City Distance Mag. Time & Date
No recent earthquake activity has been reported nearby.
Minimum magnitude displayed is 2.5.

Coastal Water Temperatures

Place Temperature
No Stations Reporting

Nearby Weather Stations

Station Location Temp. Dew Point Humidity Wind Precip. Elev Updated Type
MAP GRANTS (P107) NM , San Rafael, NM 60 °F -7 °F 6% NW  at  2 mph 0.00 in / hr 6535 ft 11:00 PM MDT MADIS

Show More Stations Show Fewer Stations